createdAt,value
2022-12-26T00:01:04.376Z,99819.19
2022-12-26T00:06:19.372Z,99825.94
2022-12-26T00:11:29.953Z,99812.97
2022-12-26T00:16:36.911Z,99824.91
2022-12-26T00:21:46.838Z,99804.81
2022-12-26T00:26:50.865Z,99829.69
2022-12-26T00:31:58.414Z,99826.22
2022-12-26T00:37:05.143Z,99826.22
2022-12-26T00:42:12.399Z,99835.91
2022-12-26T00:47:20.740Z,99827.19
2022-12-26T00:52:25.981Z,99828.84
2022-12-26T00:57:40.215Z,99833.09
2022-12-26T01:02:54.129Z,99827.88
2022-12-26T01:08:21.086Z,99804.13
2022-12-26T01:13:25.879Z,99810.50
2022-12-26T01:18:32.580Z,99830.50
2022-12-26T01:23:42.855Z,99826.16
2022-12-26T01:28:58.457Z,99823.16
2022-12-26T01:34:11.605Z,99806.38
2022-12-26T01:39:18.745Z,99829.53
2022-12-26T01:44:59.948Z,99821.78
2022-12-26T01:50:17.927Z,99811.56
2022-12-26T01:55:24.111Z,99803.59
2022-12-26T02:00:38.185Z,99793.75
2022-12-26T02:05:45.650Z,99784.22
2022-12-26T02:11:12.031Z,99786.69
2022-12-26T02:16:22.432Z,99772.47
2022-12-26T02:22:02.822Z,99795.31
2022-12-26T02:27:20.463Z,99785.66
2022-12-26T02:32:44.783Z,99803.38
2022-12-26T02:38:13.102Z,99809.97
2022-12-26T02:43:27.828Z,99804.41
2022-12-26T02:48:45.207Z,99801.50
2022-12-26T02:54:18.903Z,99784.13
2022-12-26T02:59:55.111Z,99808.69
2022-12-26T03:05:24.445Z,99803.44
2022-12-26T03:10:51.449Z,99815.56
2022-12-26T03:16:17.402Z,99827.56
2022-12-26T03:21:27.268Z,99816.09
2022-12-26T03:26:43.868Z,99813.84
2022-12-26T03:31:49.088Z,99809.44
2022-12-26T03:37:23.246Z,99822.63
2022-12-26T03:42:53.269Z,99823.69
2022-12-26T03:48:24.528Z,99821.81
2022-12-26T03:53:53.391Z,99836.47
2022-12-26T03:59:22.445Z,99841.88
2022-12-26T04:04:50.660Z,99849.88
2022-12-26T04:10:21.106Z,99842.19
2022-12-26T04:15:56.940Z,99844.63
2022-12-26T04:21:32.500Z,99869.06
2022-12-26T04:27:04.319Z,99875.44
2022-12-26T04:32:32.714Z,99876.03
2022-12-26T04:38:00.040Z,99867.03
2022-12-26T04:43:49.388Z,99862.19
2022-12-26T04:49:23.475Z,99855.00
2022-12-26T04:54:28.228Z,99857.44
2022-12-26T04:59:37.335Z,99863.00
2022-12-26T05:05:05.814Z,99859.72
2022-12-26T05:10:17.858Z,99871.03
2022-12-26T05:15:34.565Z,99875.75
2022-12-26T05:21:02.398Z,99880.00
2022-12-26T05:26:38.092Z,99892.00
2022-12-26T05:31:56.419Z,99874.84
2022-12-26T05:37:05.766Z,99862.19
2022-12-26T05:42:23.705Z,99870.06
2022-12-26T05:47:38.410Z,99847.44
2022-12-26T05:52:45.582Z,99842.31
2022-12-26T05:58:05.828Z,99839.88
2022-12-26T06:03:43.369Z,99874.09
2022-12-26T06:08:53.693Z,99865.03
2022-12-26T06:13:59.428Z,99877.91
2022-12-26T06:19:26.754Z,99891.25
2022-12-26T06:24:36.591Z,99900.25
2022-12-26T06:29:45.681Z,99902.28
2022-12-26T06:35:00.078Z,99902.16
2022-12-26T06:40:07.087Z,99894.22
2022-12-26T06:45:16.749Z,99896.72
2022-12-26T06:50:32.538Z,99912.28
2022-12-26T06:56:17.856Z,99918.16
2022-12-26T07:01:22.656Z,99919.53
2022-12-26T07:06:32.940Z,99924.56
2022-12-26T07:11:39.020Z,99927.16
2022-12-26T07:16:46.781Z,99920.34
2022-12-26T07:21:57.767Z,99920.06
2022-12-26T07:27:04.868Z,99917.94
2022-12-26T07:32:09.398Z,99907.34
2022-12-26T07:37:20.156Z,99910.50
2022-12-26T07:42:26.657Z,99910.88
2022-12-26T07:47:34.640Z,99930.13
2022-12-26T07:52:42.330Z,99937.25
2022-12-26T07:57:58.472Z,99942.72
2022-12-26T08:03:08.428Z,99958.84
2022-12-26T08:08:27.891Z,99945.78
2022-12-26T08:13:39.062Z,99954.88
2022-12-26T08:18:48.596Z,99958.56
2022-12-26T08:24:02.811Z,99967.91
2022-12-26T08:29:17.051Z,99957.97
2022-12-26T08:34:22.131Z,99953.41
2022-12-26T08:39:46.698Z,99960.38
2022-12-26T08:50:21.402Z,99966.31
2022-12-26T08:55:56.485Z,99973.88
2022-12-26T09:01:11.367Z,99970.25
2022-12-26T09:06:18.175Z,99970.94
2022-12-26T09:11:24.849Z,99978.50
2022-12-26T09:16:37.506Z,99989.66
2022-12-26T09:21:47.561Z,99984.28
2022-12-26T09:26:58.820Z,99978.72
2022-12-26T09:32:08.835Z,99979.91
2022-12-26T09:37:17.738Z,99985.84
2022-12-26T09:42:32.367Z,99976.00
2022-12-26T09:47:49.329Z,99997.69
2022-12-26T09:52:58.595Z,100003.59
2022-12-26T09:58:10.740Z,100000.16
2022-12-26T10:03:17.565Z,100000.47
2022-12-26T10:08:33.420Z,99994.56
2022-12-26T10:13:45.646Z,99996.03
2022-12-26T10:19:09.148Z,99986.69
2022-12-26T10:24:24.612Z,99983.38
2022-12-26T10:29:34.176Z,99976.84
2022-12-26T10:34:42.764Z,99972.25
2022-12-26T10:39:52.204Z,99967.53
2022-12-26T10:44:57.156Z,99974.94
2022-12-26T10:50:04.850Z,99993.50
2022-12-26T10:55:27.132Z,100008.50
2022-12-26T11:00:33.147Z,100016.91
2022-12-26T11:11:21.603Z,100016.25
2022-12-26T11:16:34.777Z,100012.50
2022-12-26T11:21:45.066Z,100004.03
2022-12-26T11:26:56.685Z,100013.19
2022-12-26T11:32:04.358Z,100026.06
2022-12-26T11:37:27.743Z,100033.69
2022-12-26T11:42:36.467Z,100028.09
2022-12-26T11:47:57.407Z,100058.34
2022-12-26T11:53:19.170Z,100053.81
2022-12-26T11:58:27.876Z,100046.09
2022-12-26T12:03:43.828Z,100015.91
2022-12-26T12:09:11.215Z,100025.56
2022-12-26T12:14:37.465Z,100023.09
2022-12-26T12:19:57.129Z,100022.97
2022-12-26T12:25:20.785Z,100020.47
2022-12-26T12:30:32.383Z,100028.06
2022-12-26T12:35:53.827Z,100030.31
2022-12-26T12:41:21.132Z,100034.50
2022-12-26T12:46:43.386Z,100043.88
2022-12-26T12:52:00.007Z,100035.75
2022-12-26T12:57:12.385Z,100044.03
2022-12-26T13:02:23.780Z,100038.94
2022-12-26T13:07:43.411Z,100037.13
2022-12-26T13:12:56.736Z,100040.72
2022-12-26T13:18:10.733Z,100035.78
2022-12-26T13:23:38.616Z,100048.19
2022-12-26T13:28:59.442Z,100050.41
2022-12-26T13:34:05.318Z,100049.25
2022-12-26T13:39:39.075Z,100050.50
2022-12-26T13:44:51.378Z,100051.88
2022-12-26T13:49:57.751Z,100043.34
2022-12-26T13:55:33.227Z,100026.94
2022-12-26T14:01:02.972Z,100028.22
2022-12-26T14:06:47.846Z,100020.78
2022-12-26T14:12:11.681Z,100027.25
2022-12-26T14:17:33.993Z,100038.03
2022-12-26T14:22:54.829Z,100039.97
2022-12-26T14:28:07.330Z,100051.25
2022-12-26T14:33:32.456Z,100063.66
2022-12-26T14:38:47.544Z,100058.44
2022-12-26T14:43:58.139Z,100046.69
2022-12-26T14:49:26.419Z,100049.59
2022-12-26T14:54:51.104Z,100042.84
2022-12-26T15:00:49.491Z,100053.31
2022-12-26T15:06:30.259Z,100055.13
2022-12-26T15:12:07.853Z,100065.56
2022-12-26T15:17:22.107Z,100061.03
2022-12-26T15:22:54.125Z,100062.28
2022-12-26T15:28:35.420Z,100063.75
2022-12-26T15:33:46.869Z,100080.69
2022-12-26T15:39:05.514Z,100066.09
2022-12-26T15:44:28.857Z,100065.97
2022-12-26T15:50:04.177Z,100061.97
2022-12-26T15:55:35.693Z,100051.09
2022-12-26T16:00:51.935Z,100045.16
2022-12-26T16:06:11.147Z,100048.63
2022-12-26T16:11:24.277Z,100052.50
2022-12-26T16:16:38.903Z,100052.91
2022-12-26T16:22:00.006Z,100055.09
2022-12-26T16:27:09.449Z,100057.84
2022-12-26T16:32:18.441Z,100057.28
2022-12-26T16:37:26.665Z,100058.53
2022-12-26T16:42:38.803Z,100053.16
2022-12-26T16:47:46.683Z,100055.22
2022-12-26T16:52:55.054Z,100056.47
2022-12-26T16:58:05.924Z,100046.56
2022-12-26T17:03:34.075Z,100058.41
2022-12-26T17:08:44.851Z,100051.94
2022-12-26T17:13:55.823Z,100067.78
2022-12-26T17:19:16.521Z,100069.16
2022-12-26T17:24:29.448Z,100063.66
2022-12-26T17:29:51.547Z,100068.75
2022-12-26T17:34:56.446Z,100069.56
2022-12-26T17:40:08.770Z,100070.13
2022-12-26T17:45:26.328Z,100063.66
2022-12-26T17:50:36.412Z,100067.78
2022-12-26T17:55:44.453Z,100051.41
2022-12-26T18:00:54.978Z,100050.16
2022-12-26T18:06:02.416Z,100050.81
2022-12-26T18:11:13.206Z,100043.25
2022-12-26T18:16:26.673Z,100062.69
2022-12-26T18:21:33.360Z,100074.13
2022-12-26T18:26:39.739Z,100105.81
2022-12-26T18:31:49.525Z,100116.13
2022-12-26T18:36:54.639Z,100131.69
2022-12-26T18:42:02.947Z,100139.13
2022-12-26T18:47:14.463Z,100163.34
2022-12-26T18:52:21.870Z,100163.16
2022-12-26T18:57:29.324Z,100178.44
2022-12-26T19:02:36.312Z,100184.22
2022-12-26T19:07:41.786Z,100191.06
2022-12-26T19:12:48.371Z,100201.06
2022-12-26T19:18:05.568Z,100212.06
2022-12-26T19:23:15.845Z,100224.13
2022-12-26T19:28:58.574Z,100211.72
2022-12-26T19:34:04.085Z,100233.25
2022-12-26T19:44:30.121Z,100220.09
2022-12-26T19:49:37.722Z,100211.97
2022-12-26T19:54:50.204Z,100259.38
2022-12-26T19:59:56.999Z,100266.53
2022-12-26T20:05:03.531Z,100263.44
2022-12-26T20:10:12.304Z,100269.38
2022-12-26T20:15:18.167Z,100287.69
2022-12-26T20:20:24.957Z,100313.09
2022-12-26T20:25:30.328Z,100310.19
2022-12-26T20:30:36.979Z,100310.53
2022-12-26T20:35:50.985Z,100322.66
2022-12-26T20:40:56.116Z,100329.50
2022-12-26T20:46:09.440Z,100344.22
2022-12-26T20:51:25.452Z,100355.09
2022-12-26T20:56:32.307Z,100362.44
2022-12-26T21:01:38.336Z,100379.28
2022-12-26T21:06:47.734Z,100396.06
2022-12-26T21:12:00.294Z,100401.75
2022-12-26T21:17:20.000Z,100411.56
2022-12-26T21:22:42.996Z,100423.16
2022-12-26T21:27:49.711Z,100417.78
2022-12-26T21:32:56.919Z,100429.41
2022-12-26T21:38:07.215Z,100439.31
2022-12-26T21:43:14.156Z,100459.44
2022-12-26T21:48:19.718Z,100480.50
2022-12-26T21:53:29.566Z,100485.94
2022-12-26T21:58:55.312Z,100493.47
2022-12-26T22:04:29.850Z,100499.09
2022-12-26T22:09:41.206Z,100512.34
2022-12-26T22:14:47.431Z,100519.88
2022-12-26T22:19:53.008Z,100535.19
2022-12-26T22:25:00.088Z,100547.66
2022-12-26T22:30:05.905Z,100552.47
2022-12-26T22:35:18.373Z,100540.69
2022-12-26T22:40:25.227Z,100544.25
2022-12-26T22:45:28.953Z,100565.59
2022-12-26T22:50:33.340Z,100572.88
2022-12-26T22:55:48.284Z,100574.84
2022-12-26T23:00:57.487Z,100589.09
2022-12-26T23:06:04.025Z,100613.34
2022-12-26T23:11:14.185Z,100607.19
2022-12-26T23:16:32.979Z,100629.97
2022-12-26T23:21:43.803Z,100634.25
2022-12-26T23:26:55.371Z,100642.25
2022-12-26T23:32:00.691Z,100651.94
2022-12-26T23:37:08.477Z,100642.66
2022-12-26T23:42:19.938Z,100651.28
2022-12-26T23:47:26.161Z,100648.88
2022-12-26T23:52:35.389Z,100668.03
2022-12-26T23:57:46.211Z,100680.31
